createdAt,value
2019-05-25T01:20:54.510Z,77.65
2019-05-25T01:23:28.893Z,77.11
2019-05-25T01:26:03.764Z,76.75
2019-05-25T01:28:38.528Z,76.50
2019-05-25T01:31:14.298Z,76.28
2019-05-25T08:15:32.275Z,51.89
2019-05-25T08:18:08.144Z,50.99
2019-05-25T08:27:03.442Z,50.48
2019-05-25T08:29:39.224Z,50.28
2019-05-25T08:32:14.962Z,50.42
2019-05-25T08:34:49.123Z,50.52
2019-05-25T08:37:24.422Z,50.72
2019-05-25T08:40:01.403Z,50.76
2019-05-25T08:42:36.083Z,50.78
2019-05-25T08:45:11.569Z,50.87
2019-05-25T08:47:49.647Z,50.95
2019-05-25T08:50:37.190Z,51.28
2019-05-25T08:52:59.464Z,52.56
2019-05-25T08:58:48.718Z,50.82
2019-05-25T09:01:23.139Z,50.79
2019-05-25T09:03:56.738Z,51.03
2019-05-25T09:06:32.059Z,50.98
2019-05-25T09:11:12.834Z,51.02
2019-05-25T09:13:47.575Z,51.94
2019-05-25T09:16:22.466Z,52.67
2019-05-25T09:18:55.561Z,53.07
2019-05-25T09:21:28.802Z,52.51
2019-05-25T09:24:03.002Z,52.11
2019-05-25T09:26:45.529Z,52.00
2019-05-25T09:29:19.260Z,51.87
2019-05-25T09:31:48.068Z,52.06
2019-05-25T09:34:21.664Z,52.34
2019-05-25T09:36:55.155Z,51.99
2019-05-25T09:39:28.604Z,52.06
2019-05-25T09:42:02.096Z,52.23
2019-05-25T09:44:35.905Z,52.18
2019-05-25T09:47:08.960Z,51.83
2019-05-25T09:49:43.817Z,51.74
2019-05-25T09:52:18.569Z,51.54
2019-05-25T09:54:55.619Z,51.45
2019-05-25T09:57:28.059Z,51.46
2019-05-25T10:00:01.434Z,51.56
2019-05-25T10:02:37.519Z,52.00
2019-05-25T10:05:11.251Z,52.11
2019-05-25T10:07:44.552Z,52.35
2019-05-25T10:10:19.794Z,52.38
2019-05-25T10:13:13.313Z,52.36
2019-05-25T10:15:47.167Z,52.17
2019-05-25T10:18:21.645Z,52.66
2019-05-25T10:20:55.126Z,52.17
2019-05-25T10:23:30.601Z,51.63
2019-05-25T10:26:04.291Z,51.43
2019-05-25T10:28:37.643Z,51.25
2019-05-25T10:31:12.502Z,50.92
2019-05-25T10:33:47.745Z,50.61
2019-05-25T10:36:23.199Z,50.33
2019-05-25T10:38:59.494Z,50.23
2019-05-25T10:41:33.780Z,50.37
2019-05-25T10:44:08.848Z,50.22
2019-05-25T10:46:42.124Z,50.26
2019-05-25T10:49:16.161Z,50.19
2019-05-25T10:51:51.622Z,50.04
2019-05-25T10:54:24.985Z,50.29
2019-05-25T10:56:58.908Z,50.63
2019-05-25T10:59:51.665Z,50.50
2019-05-25T11:02:12.067Z,50.44
2019-05-25T11:04:51.288Z,50.99
2019-05-25T11:07:24.890Z,51.23
2019-05-25T11:09:58.161Z,51.42
2019-05-25T11:12:31.795Z,51.41
2019-05-25T11:15:11.211Z,51.48
2019-05-25T11:17:44.769Z,51.33
2019-05-25T11:20:18.248Z,51.23
2019-05-25T11:22:54.360Z,51.18
2019-05-25T11:33:24.068Z,51.25
2019-05-25T11:35:57.355Z,51.04
2019-05-25T11:38:36.196Z,51.20
2019-05-25T11:41:09.801Z,51.27
2019-05-25T11:43:47.299Z,51.12
2019-05-25T11:46:22.236Z,51.15
2019-05-25T11:48:56.580Z,50.61
2019-05-25T11:51:30.012Z,50.16
2019-05-25T11:54:03.394Z,50.21
2019-05-25T11:56:36.835Z,50.27
2019-05-25T11:59:11.823Z,50.12
2019-05-25T12:01:45.209Z,52.17
2019-05-25T12:04:28.289Z,49.55
2019-05-25T12:07:01.454Z,49.02
2019-05-25T12:09:37.557Z,50.15
2019-05-25T12:12:10.675Z,48.67
2019-05-25T12:14:45.381Z,47.94
2019-05-25T12:17:21.229Z,48.14
2019-05-25T12:19:54.820Z,48.37
2019-05-25T12:22:27.892Z,48.17
2019-05-25T12:25:01.127Z,48.25
2019-05-25T12:27:36.822Z,47.97
2019-05-25T12:30:11.631Z,47.97
2019-05-25T12:32:44.736Z,47.97
2019-05-25T12:35:18.427Z,47.91
2019-05-25T12:37:51.654Z,48.36
2019-05-25T12:40:25.315Z,47.91
2019-05-25T12:43:00.255Z,48.26
2019-05-25T12:45:33.481Z,48.57
2019-05-25T12:48:06.654Z,47.96
2019-05-25T12:50:47.571Z,48.07
2019-05-25T12:53:21.023Z,48.45
2019-05-25T12:55:54.396Z,48.30
2019-05-25T12:58:34.901Z,48.20
2019-05-25T13:01:09.767Z,48.24
2019-05-25T13:03:45.866Z,48.16
2019-05-25T13:06:20.167Z,48.00
2019-05-25T13:08:57.858Z,48.09
2019-05-25T13:11:31.769Z,48.03
2019-05-25T13:14:14.717Z,48.52
2019-05-25T13:16:44.824Z,50.50
2019-05-25T13:19:18.338Z,47.56
2019-05-25T13:21:53.681Z,46.95
2019-05-25T13:24:28.846Z,46.66
2019-05-25T13:27:02.139Z,46.71
2019-05-25T13:29:36.725Z,46.75
2019-05-25T13:32:10.081Z,46.56
2019-05-25T13:34:44.884Z,46.42
2019-05-25T13:37:18.198Z,46.35
2019-05-25T13:39:55.441Z,46.16
2019-05-25T13:42:28.528Z,45.92
2019-05-25T13:45:02.768Z,45.77
2019-05-25T13:47:37.046Z,45.50
2019-05-25T13:50:10.513Z,45.36
2019-05-25T13:52:43.703Z,45.41
2019-05-25T13:55:17.924Z,45.35
2019-05-25T13:57:51.101Z,45.13
2019-05-25T14:00:24.305Z,45.63
2019-05-25T14:02:57.952Z,45.42
2019-05-25T14:05:33.915Z,45.29
2019-05-25T14:08:08.841Z,44.99
2019-05-25T14:10:43.488Z,45.05
2019-05-25T14:13:17.007Z,45.01
2019-05-25T14:15:50.197Z,44.99
2019-05-25T14:18:23.528Z,45.19
2019-05-25T14:20:57.003Z,45.22
2019-05-25T14:23:30.849Z,45.06
2019-05-25T14:26:06.521Z,45.36
2019-05-25T14:28:39.795Z,45.89
2019-05-25T14:31:13.968Z,45.80
2019-05-25T14:33:54.378Z,45.33
2019-05-25T14:36:27.697Z,45.17
2019-05-25T14:39:02.283Z,45.00
2019-05-25T14:41:36.604Z,45.29
2019-05-25T14:44:09.520Z,44.89
2019-05-25T14:46:42.601Z,44.74
2019-05-25T14:49:15.840Z,44.42
2019-05-25T14:51:51.320Z,44.30
2019-05-25T14:54:24.385Z,44.46
2019-05-25T14:56:57.562Z,45.15
2019-05-25T14:59:30.779Z,45.03
2019-05-25T15:02:13.976Z,45.01
2019-05-25T15:04:48.808Z,45.25
2019-05-25T15:07:25.275Z,45.03
2019-05-25T15:09:58.225Z,44.88
2019-05-25T15:12:32.936Z,44.59
2019-05-25T15:15:07.876Z,45.17
2019-05-25T15:17:42.929Z,44.78
2019-05-25T15:20:15.798Z,44.73
2019-05-25T15:22:48.897Z,44.67
2019-05-25T15:25:22.030Z,44.52
2019-05-25T15:27:55.081Z,44.44
2019-05-25T15:30:29.685Z,44.75
2019-05-25T15:33:04.260Z,44.61
2019-05-25T15:35:37.251Z,44.61
2019-05-25T15:38:10.187Z,44.48
